Time;durP1;ratioP1;P1;durP2;ratioP2;P2;SDS_P1;SDS_P2;PMS_P1;PMS_P2;Temp;Humidity;BMP_temperature;BMP_pressure;BME280_temperature;BME280_humidity;BME280_pressure;Samples;Min_cycle;Max_cycle;Signal;HPM_P1;HPM_P2
2023/04/05 00:01:59;;;;;;;7.30;5.90;;;;;;;1.66;66.31;151793.44;5103807;28;20981;-76
2023/04/05 00:04:27;;;;;;;5.17;4.67;;;;;;;1.67;66.33;151795.97;5080027;28;20456;-76
2023/04/05 00:06:54;;;;;;;6.27;5.07;;;;;;;1.63;66.38;151785.72;5092412;28;20420;-75
2023/04/05 00:09:21;;;;;;;7.93;6.00;;;;;;;1.63;66.44;151785.72;5087868;28;20556;-75
2023/04/05 00:11:48;;;;;;;6.97;5.60;;;;;;;1.68;66.04;151798.56;5093424;28;20856;-75
2023/04/05 00:14:14;;;;;;;5.77;5.20;;;;;;;1.71;65.14;151806.28;5104008;28;20511;-77
2023/04/05 00:16:42;;;;;;;6.50;5.53;;;;;;;1.69;66.37;151801.16;5106963;28;21005;-77
2023/04/05 00:19:11;;;;;;;10.03;5.43;;;;;;;1.63;65.85;151785.72;5095475;28;20448;-76
2023/04/05 00:21:39;;;;;;;7.27;5.90;;;;;;;1.57;66.75;151770.28;5095333;28;20507;-77
2023/04/05 00:24:06;;;;;;;7.90;6.13;;;;;;;1.54;67.00;151762.56;5095625;28;20471;-77
2023/04/05 00:26:33;;;;;;;6.77;5.40;;;;;;;1.55;67.49;151766.47;5093942;28;20531;-77
2023/04/05 00:29:00;;;;;;;6.37;5.17;;;;;;;1.50;67.27;151752.31;5072707;28;20433;-77
2023/04/05 00:31:28;;;;;;;7.30;5.83;;;;;;;1.49;68.16;151749.72;5077868;28;20457;-77
2023/04/05 00:33:57;;;;;;;6.73;5.80;;;;;;;1.40;69.96;151726.63;5114758;28;20468;-77
2023/04/05 00:36:23;;;;;;;6.60;5.40;;;;;;;1.36;68.95;151716.31;5095072;28;20464;-77
2023/04/05 00:38:50;;;;;;;7.40;6.03;;;;;;;1.35;68.92;151713.78;5078870;28;20440;-77
2023/04/05 00:41:17;;;;;;;7.07;5.57;;;;;;;1.39;68.07;151724.03;5088744;28;20739;-77
2023/04/05 00:43:44;;;;;;;6.70;5.83;;;;;;;1.32;70.06;151706.06;5077792;28;20475;-77
2023/04/05 00:46:10;;;;;;;6.77;5.27;;;;;;;1.29;70.56;151698.38;5094005;28;20438;-77
2023/04/05 00:48:38;;;;;;;10.40;5.93;;;;;;;1.29;70.08;151699.66;5075659;28;20495;-77
2023/04/05 00:51:08;;;;;;;6.67;5.97;;;;;;;1.25;71.15;151689.34;5094624;28;20435;-77
2023/04/05 00:53:35;;;;;;;7.40;6.00;;;;;;;1.19;72.21;151673.97;5095279;28;20505;-77
2023/04/05 00:56:02;;;;;;;8.37;6.10;;;;;;;1.18;74.37;151671.38;5082748;28;20468;-77
2023/04/05 00:58:30;;;;;;;7.20;5.37;;;;;;;1.12;73.52;151657.25;5062883;28;20480;-77
2023/04/05 01:01:04;;;;;;;9.00;5.50;;;;;;;1.08;71.91;151647.00;5094353;27;20799;-77
2023/04/05 01:03:33;;;;;;;6.77;5.27;;;;;;;1.12;72.82;151657.25;5087970;28;20443;-77
2023/04/05 01:06:09;;;;;;;9.50;6.20;;;;;;;1.11;73.04;151654.66;5104654;28;20532;-77
2023/04/05 01:08:42;;;;;;;6.37;5.67;;;;;;;1.04;73.32;151636.69;5095130;28;20455;-77
2023/04/05 01:11:10;;;;;;;6.23;5.10;;;;;;;1.03;75.58;151632.88;5108519;28;20519;-78
2023/04/05 01:13:37;;;;;;;7.03;6.07;;;;;;;0.96;74.30;151614.84;5094960;28;20455;-78
2023/04/05 01:16:04;;;;;;;7.53;5.83;;;;;;;0.90;73.74;151599.47;5093369;28;20825;-78
2023/04/05 01:18:31;;;;;;;7.07;6.37;;;;;;;0.94;73.46;151611.03;5078131;28;20819;-78
2023/04/05 01:21:06;;;;;;;8.00;5.67;;;;;;;1.00;73.82;151626.44;5077661;28;20445;-78
2023/04/05 01:23:46;;;;;;;7.30;5.67;;;;;;;0.96;72.47;151616.16;5070196;28;20451;-78
2023/04/05 01:26:46;;;;;;;8.17;6.33;;;;;;;1.04;75.01;151635.41;5088232;28;20448;-77
2023/04/05 01:29:53;;;;;;;12.13;6.17;;;;;;;1.01;76.47;151628.97;5095196;28;20444;-77
2023/04/05 01:32:34;;;;;;;7.77;6.17;;;;;;;0.98;76.33;151620.03;5068160;28;20974;-77
2023/04/05 01:35:05;;;;;;;8.17;6.67;;;;;;;0.93;72.63;151608.44;5090957;28;20480;-77
2023/04/05 01:37:34;;;;;;;8.67;6.60;;;;;;;0.95;76.12;151613.59;5090855;28;20443;-77
2023/04/05 01:40:01;;;;;;;8.23;6.47;;;;;;;0.91;75.40;151603.31;5094886;28;20432;-77
2023/04/05 01:42:28;;;;;;;10.27;7.47;;;;;;;0.90;75.68;151599.47;5083142;28;20431;-77
2023/04/05 01:44:57;;;;;;;8.23;6.47;;;;;;;0.82;73.40;151578.94;5093381;28;20535;-77
2023/04/05 01:47:24;;;;;;;8.30;6.10;;;;;;;0.83;74.19;151582.75;5086580;28;20974;-77
2023/04/05 01:49:51;;;;;;;8.07;7.27;;;;;;;0.82;75.03;151580.16;5105278;28;20482;-77
2023/04/05 01:52:18;;;;;;;8.50;6.70;;;;;;;0.82;76.03;151578.94;5094332;28;20497;-77
2023/04/05 01:54:44;;;;;;;8.13;6.40;;;;;;;0.81;75.97;151576.34;5073270;28;20499;-77
2023/04/05 01:57:11;;;;;;;8.23;6.60;;;;;;;0.77;74.95;151567.34;5062387;28;20665;-77
2023/04/05 01:59:41;;;;;;;8.90;6.60;;;;;;;0.75;73.70;151562.22;5094843;28;20456;-77
2023/04/05 02:02:09;;;;;;;8.67;7.00;;;;;;;0.74;72.13;151559.66;5073678;28;20445;-77
2023/04/05 02:04:35;;;;;;;8.43;6.90;;;;;;;0.79;74.20;151571.22;5107521;28;20813;-77
2023/04/05 02:07:02;;;;;;;7.50;6.07;;;;;;;0.75;73.28;151560.91;5081598;28;20532;-76
2023/04/05 02:09:29;;;;;;;9.37;6.60;;;;;;;0.80;71.66;151575.03;5077045;28;20452;-76
2023/04/05 02:11:56;;;;;;;7.47;6.20;;;;;;;0.77;71.96;151567.34;5102394;28;20441;-76
2023/04/05 02:14:24;;;;;;;9.33;7.00;;;;;;;0.76;71.80;151563.50;5107136;28;20468;-76
2023/04/05 02:16:52;;;;;;;6.70;6.00;;;;;;;0.74;71.49;151559.66;5063841;28;20485;-77
2023/04/05 02:19:21;;;;;;;7.77;6.60;;;;;;;0.74;72.30;151559.66;5071644;28;20449;-76
2023/04/05 02:21:49;;;;;;;9.23;7.10;;;;;;;0.72;74.75;151553.22;5072931;28;20456;-76
2023/04/05 02:24:16;;;;;;;10.00;7.40;;;;;;;0.73;77.47;151557.09;5077721;28;20446;-76
2023/04/05 02:26:42;;;;;;;9.67;6.77;;;;;;;0.71;79.19;151550.66;5088815;28;20469;-76
2023/04/05 02:29:09;;;;;;;10.40;6.87;;;;;;;0.69;79.63;151545.53;5063019;28;20434;-76
2023/04/05 02:31:36;;;;;;;9.70;6.83;;;;;;;0.64;77.94;151532.72;5064707;28;20464;-76
2023/04/05 02:34:04;;;;;;;10.33;6.50;;;;;;;0.58;75.89;151518.59;5091285;28;20947;-76
2023/04/05 02:36:33;;;;;;;8.90;6.40;;;;;;;0.58;75.67;151519.81;5054707;28;20967;-76
2023/04/05 02:38:59;;;;;;;9.60;6.50;;;;;;;0.59;77.40;151522.41;5056235;28;20442;-76
2023/04/05 02:41:26;;;;;;;7.30;6.50;;;;;;;0.46;75.43;151487.75;5092050;28;20936;-76
2023/04/05 02:43:53;;;;;;;8.63;6.73;;;;;;;0.36;74.85;151462.09;5066711;28;20858;-76
2023/04/05 02:46:20;;;;;;;7.93;6.40;;;;;;;0.30;75.45;151446.66;5055017;28;20449;-76
2023/04/05 02:48:46;;;;;;;8.60;7.07;;;;;;;0.22;74.53;151427.41;5045982;28;20476;-76
2023/04/05 02:51:15;;;;;;;9.03;6.73;;;;;;;0.16;75.26;151412.00;5071309;28;20445;-76
2023/04/05 02:53:44;;;;;;;9.90;6.73;;;;;;;0.14;76.06;151406.88;5077407;28;20852;-76
2023/04/05 02:56:13;;;;;;;9.93;6.43;;;;;;;0.14;76.76;151405.59;5060012;28;20958;-76
2023/04/05 02:58:43;;;;;;;8.07;7.27;;;;;;;0.08;77.01;151390.22;5042365;28;20976;-76
2023/04/05 03:01:11;;;;;;;10.40;7.30;;;;;;;0.06;76.90;151385.06;5066886;28;20444;-76
2023/04/05 03:03:39;;;;;;;8.20;6.50;;;;;;;0.07;77.39;151387.63;5069319;28;20846;-76
2023/04/05 03:06:09;;;;;;;6.83;5.90;;;;;;;0.08;78.72;151390.22;5089941;28;20532;-76
2023/04/05 03:08:42;;;;;;;8.47;6.47;;;;;;;-0.03;77.57;151364.53;5061030;28;20448;-76
2023/04/05 03:11:11;;;;;;;9.40;7.03;;;;;;;-0.06;79.84;151355.56;5064318;28;20433;-76
2023/04/05 03:13:40;;;;;;;10.57;7.70;;;;;;;-0.14;79.92;151336.34;5072517;28;20441;-76
2023/04/05 03:16:13;;;;;;;11.00;7.23;;;;;;;-0.21;79.21;151318.34;5069745;28;20486;-76
2023/04/05 03:18:42;;;;;;;8.03;6.83;;;;;;;-0.19;79.88;151322.22;5072814;28;20456;-76
2023/04/05 03:21:10;;;;;;;8.87;7.30;;;;;;;-0.19;78.61;151323.50;5083086;28;20432;-76
2023/04/05 03:23:45;;;;;;;9.37;7.10;;;;;;;-0.15;78.77;151332.47;5105668;28;20445;-77
2023/04/05 03:26:15;;;;;;;9.17;6.90;;;;;;;-0.17;77.36;151328.63;5076594;28;20440;-76
2023/04/05 03:28:47;;;;;;;8.00;6.30;;;;;;;-0.20;78.10;151320.91;5096684;28;20887;-76
2023/04/05 03:31:14;;;;;;;10.10;7.87;;;;;;;-0.15;79.28;151333.75;5079224;28;20425;-75
2023/04/05 03:33:41;;;;;;;8.30;6.87;;;;;;;-0.16;78.18;151331.16;5096713;28;20448;-76
2023/04/05 03:36:08;;;;;;;8.43;7.20;;;;;;;-0.13;79.27;151338.88;5097155;28;20468;-76
2023/04/05 03:38:37;;;;;;;8.70;6.70;;;;;;;-0.23;78.09;151313.22;5074178;28;20469;-76
2023/04/05 03:41:17;;;;;;;8.70;6.37;;;;;;;-0.27;79.07;151302.97;5069651;28;20455;-76
2023/04/05 03:43:43;;;;;;;9.03;6.63;;;;;;;-0.31;79.25;151292.69;5086556;28;20455;-76
2023/04/05 03:46:10;;;;;;;10.10;7.57;;;;;;;-0.31;81.06;151292.69;5073017;28;20964;-76
2023/04/05 03:48:37;;;;;;;8.80;6.83;;;;;;;-0.40;79.97;151269.63;5091421;28;20472;-76
2023/04/05 03:51:05;;;;;;;9.70;6.80;;;;;;;-0.43;80.56;151261.94;5078941;28;20440;-77
2023/04/05 03:53:31;;;;;;;8.83;7.07;;;;;;;-0.47;81.20;151251.63;5076311;28;20457;-76
2023/04/05 03:56:00;;;;;;;8.83;7.17;;;;;;;-0.48;81.21;151249.09;5070910;28;20500;-76
2023/04/05 03:58:40;;;;;;;9.77;7.27;;;;;;;-0.57;81.77;151226.00;5109689;28;20475;-76
2023/04/05 04:01:08;;;;;;;8.50;6.90;;;;;;;-0.66;82.12;151204.19;5082151;28;20439;-76
2023/04/05 04:03:36;;;;;;;9.27;6.80;;;;;;;-0.72;82.87;151187.53;5089803;28;20437;-76
2023/04/05 04:06:03;;;;;;;11.47;7.27;;;;;;;-0.78;82.84;151172.13;5077963;27;20485;-76
2023/04/05 04:08:29;;;;;;;10.90;7.17;;;;;;;-0.83;83.40;151159.31;5096774;28;20714;-76
2023/04/05 04:10:59;;;;;;;12.00;7.50;;;;;;;-0.89;82.87;151143.91;5106183;28;20437;-75
2023/04/05 04:13:29;;;;;;;9.50;7.17;;;;;;;-0.87;83.84;151149.03;5066586;28;20440;-76
2023/04/05 04:16:03;;;;;;;9.70;7.17;;;;;;;-0.89;83.08;151143.91;5077970;28;20567;-75
2023/04/05 04:18:53;;;;;;;8.77;6.50;;;;;;;-0.90;83.63;151142.63;5107177;28;20965;-76
2023/04/05 04:21:31;;;;;;;10.63;6.73;;;;;;;-0.92;84.44;151136.22;5082387;28;20525;-76
2023/04/05 04:24:21;;;;;;;12.60;7.83;;;;;;;-0.97;84.65;151124.69;5090132;28;20448;-77
2023/04/05 04:26:48;;;;;;;11.23;8.57;;;;;;;-0.95;85.30;151129.81;5093794;28;20457;-76
2023/04/05 04:29:37;;;;;;;9.13;7.63;;;;;;;-1.01;84.78;151114.47;5095108;28;20911;-76
2023/04/05 04:35:28;;;;;;;7.63;6.90;;;;;;;-0.90;85.61;151141.38;5077976;28;20508;-76
2023/04/05 04:38:19;;;;;;;10.17;7.03;;;;;;;-0.74;85.81;151182.38;5086998;28;20441;-76
2023/04/05 04:41:11;;;;;;;9.67;7.33;;;;;;;-0.73;84.94;151184.94;5072673;28;20424;-76
2023/04/05 04:44:03;;;;;;;8.30;6.40;;;;;;;-0.73;83.94;151184.94;5095280;28;20449;-76
2023/04/05 04:46:33;;;;;;;10.83;7.20;;;;;;;-0.73;84.02;151184.94;5078696;28;20437;-76
2023/04/05 04:49:12;;;;;;;12.83;7.10;;;;;;;-0.78;82.60;151172.13;5073426;28;20740;-76
2023/04/05 04:51:45;;;;;;;10.07;7.07;;;;;;;-0.72;84.25;151187.53;5087414;28;20452;-76
2023/04/05 04:54:12;;;;;;;9.60;7.80;;;;;;;-0.71;84.78;151190.06;5077840;28;20480;-75
2023/04/05 04:56:38;;;;;;;13.03;7.50;;;;;;;-0.77;84.81;151175.97;5073277;28;20495;-76
2023/04/05 04:59:05;;;;;;;8.67;6.97;;;;;;;-0.78;84.85;151172.13;5089270;28;20527;-76
2023/04/05 05:01:32;;;;;;;11.80;7.43;;;;;;;-0.72;86.50;151188.81;5065364;28;20472;-76
2023/04/05 05:04:00;;;;;;;11.20;7.63;;;;;;;-0.69;85.33;151195.25;5071405;28;20547;-76
2023/04/05 05:06:35;;;;;;;9.60;7.10;;;;;;;-0.68;84.88;151197.78;5086252;28;20443;-75
2023/04/05 05:09:02;;;;;;;11.97;7.83;;;;;;;-0.66;84.86;151202.88;5105272;27;20453;-75
2023/04/05 05:11:32;;;;;;;11.20;8.70;;;;;;;-0.59;85.29;151219.59;5090419;28;20453;-76
2023/04/05 05:13:59;;;;;;;11.23;8.23;;;;;;;-0.55;85.69;151231.13;5066325;28;20454;-75
2023/04/05 05:16:28;;;;;;;12.00;7.90;;;;;;;-0.53;85.46;151235.00;5068238;28;20472;-76
2023/04/05 05:18:55;;;;;;;11.40;8.00;;;;;;;-0.58;85.22;151222.16;5072288;28;20548;-76
2023/04/05 05:21:25;;;;;;;10.23;8.03;;;;;;;-0.55;85.86;151229.81;5089992;28;20436;-76
2023/04/05 05:23:57;;;;;;;9.53;7.70;;;;;;;-0.67;85.02;151201.66;5090161;28;20497;-76
2023/04/05 05:26:23;;;;;;;11.57;8.20;;;;;;;-0.70;84.89;151192.66;5087902;28;20528;-76
2023/04/05 05:28:50;;;;;;;10.43;7.80;;;;;;;-0.76;84.57;151178.53;5073136;28;20480;-76
2023/04/05 05:31:18;;;;;;;9.80;7.87;;;;;;;-0.81;85.34;151165.72;5104587;28;20466;-78
2023/04/05 05:33:48;;;;;;;10.57;8.40;;;;;;;-0.83;86.57;151159.31;5090061;28;20878;-77
2023/04/05 05:36:15;;;;;;;14.90;8.40;;;;;;;-0.79;86.51;151169.56;5105285;28;20444;-77
2023/04/05 05:38:42;;;;;;;10.87;8.43;;;;;;;-0.71;87.89;151190.06;5089206;28;20452;-76
2023/04/05 05:41:10;;;;;;;12.10;7.67;;;;;;;-0.66;87.01;151202.88;5089132;28;21093;-77
2023/04/05 05:43:37;;;;;;;11.60;7.33;;;;;;;-0.59;87.96;151220.88;5072424;28;20457;-77
2023/04/05 05:46:03;;;;;;;12.63;7.93;;;;;;;-0.57;88.69;151226.00;5088122;28;20455;-76
2023/04/05 05:48:30;;;;;;;10.43;7.70;;;;;;;-0.54;87.78;151233.69;5103718;28;20498;-77
2023/04/05 05:51:00;;;;;;;10.97;7.97;;;;;;;-0.40;88.25;151269.63;5086840;28;20460;-77
2023/04/05 05:53:27;;;;;;;10.00;7.70;;;;;;;-0.23;86.41;151311.94;5086787;28;20444;-78
2023/04/05 05:55:54;;;;;;;10.37;7.37;;;;;;;-0.05;85.84;151359.41;5087422;28;20851;-78
2023/04/05 05:58:23;;;;;;;10.87;7.40;;;;;;;0.19;84.32;151418.41;5095480;28;20474;-77
2023/04/05 06:00:51;;;;;;;11.43;7.90;;;;;;;0.51;83.70;151500.56;5087912;28;20457;-77
2023/04/05 06:03:18;;;;;;;9.50;7.90;;;;;;;0.86;82.41;151589.19;5086919;28;20455;-77
2023/04/05 06:05:51;;;;;;;9.93;7.73;;;;;;;1.27;79.74;151693.22;5088376;28;20461;-77
2023/04/05 06:08:17;;;;;;;9.40;7.50;;;;;;;1.67;76.97;151795.97;5087385;28;20451;-77
2023/04/05 06:10:44;;;;;;;11.73;8.10;;;;;;;1.99;77.05;151876.97;5089532;28;20539;-75
2023/04/05 06:13:11;;;;;;;9.97;8.27;;;;;;;2.28;75.35;151952.81;5071685;28;20485;-76
2023/04/05 06:15:39;;;;;;;9.47;8.10;;;;;;;2.55;73.39;152019.69;5070881;28;20478;-77
2023/04/05 06:18:06;;;;;;;9.97;7.67;;;;;;;2.72;70.60;152063.44;5070536;28;20539;-77
2023/04/05 06:20:32;;;;;;;9.73;7.53;;;;;;;2.86;69.78;152099.47;5071686;28;20454;-77
2023/04/05 06:22:59;;;;;;;8.13;7.23;;;;;;;3.02;68.70;152141.91;5062987;28;20465;-77
2023/04/05 06:25:26;;;;;;;10.93;8.07;;;;;;;3.22;69.73;152192.09;5071459;28;20446;-75
2023/04/05 06:27:53;;;;;;;16.40;8.77;;;;;;;3.31;68.06;152215.22;5070989;28;20456;-76
2023/04/05 06:30:19;;;;;;;11.57;8.13;;;;;;;3.44;68.45;152248.69;5071078;28;20482;-75
2023/04/05 06:32:53;;;;;;;10.83;8.50;;;;;;;3.54;68.45;152274.47;5069524;28;20454;-77
2023/04/05 06:35:20;;;;;;;12.70;8.50;;;;;;;3.73;67.78;152320.81;5072532;28;20442;-77
2023/04/05 06:37:46;;;;;;;10.33;9.00;;;;;;;3.87;67.38;152356.81;5070413;28;20531;-77
2023/04/05 06:40:13;;;;;;;11.07;8.30;;;;;;;4.04;67.36;152400.63;5070890;28;20512;-77
2023/04/05 06:42:40;;;;;;;10.57;8.17;;;;;;;4.20;66.14;152441.84;5071850;28;20450;-77
2023/04/05 06:45:11;;;;;;;9.50;7.80;;;;;;;4.22;64.56;152448.28;5070731;28;20445;-77
2023/04/05 06:47:39;;;;;;;9.43;8.37;;;;;;;4.31;65.65;152470.19;5086704;28;20989;-77
2023/04/05 06:50:09;;;;;;;11.67;8.97;;;;;;;4.41;65.06;152495.94;5064235;28;20443;-77
2023/04/05 06:52:36;;;;;;;11.27;9.60;;;;;;;4.48;63.00;152512.66;5069844;28;20443;-77
2023/04/05 06:55:03;;;;;;;10.40;8.93;;;;;;;4.58;63.65;152539.72;5061825;28;20438;-77
2023/04/05 06:57:30;;;;;;;11.03;9.00;;;;;;;4.72;63.86;152575.81;5070302;28;20478;-77
2023/04/05 06:59:57;;;;;;;13.10;9.20;;;;;;;4.89;62.88;152619.66;5070616;28;20652;-77
2023/04/05 07:02:24;;;;;;;10.83;8.17;;;;;;;5.08;62.00;152667.34;5070133;28;20454;-77
2023/04/05 07:04:52;;;;;;;12.37;8.90;;;;;;;5.19;60.66;152694.41;5071723;28;20520;-78
2023/04/05 07:07:20;;;;;;;11.53;9.00;;;;;;;5.37;61.98;152740.81;5069535;28;20569;-77
2023/04/05 07:09:47;;;;;;;12.07;9.03;;;;;;;5.51;59.63;152776.88;5060014;28;20836;-77
2023/04/05 07:12:13;;;;;;;11.47;8.73;;;;;;;5.67;58.45;152818.16;5070345;28;20483;-77
2023/04/05 07:14:40;;;;;;;10.47;8.90;;;;;;;5.65;57.02;152813.00;5061010;28;20995;-77
2023/04/05 07:17:07;;;;;;;10.50;9.40;;;;;;;5.73;56.28;152833.63;5070828;28;20513;-77
2023/04/05 07:19:34;;;;;;;10.30;8.00;;;;;;;5.87;55.84;152869.81;5070257;28;21066;-78
2023/04/05 07:22:01;;;;;;;8.83;7.80;;;;;;;6.01;55.55;152904.66;5070552;28;20572;-77
2023/04/05 07:24:29;;;;;;;12.60;9.87;;;;;;;6.02;55.00;152907.19;5070211;28;20458;-77
2023/04/05 07:26:57;;;;;;;11.47;9.63;;;;;;;6.17;56.34;152944.63;5071041;28;20434;-77
2023/04/05 07:29:23;;;;;;;10.00;8.57;;;;;;;6.18;54.19;152947.19;5086434;28;20474;-77
2023/04/05 07:31:50;;;;;;;10.60;9.50;;;;;;;6.19;54.06;152949.78;5085644;28;20830;-77
2023/04/05 07:34:17;;;;;;;18.37;9.50;;;;;;;6.19;54.13;152949.78;5069783;28;20466;-77
2023/04/05 07:36:43;;;;;;;12.17;9.80;;;;;;;6.22;54.77;152958.81;5068805;28;20450;-77
2023/04/05 07:39:10;;;;;;;9.80;8.73;;;;;;;6.34;53.42;152989.78;5069270;28;20474;-77
2023/04/05 07:41:38;;;;;;;13.07;9.57;;;;;;;6.56;52.86;153046.56;5069534;28;22098;-77
2023/04/05 07:44:05;;;;;;;10.30;8.07;;;;;;;6.64;52.99;153065.91;5069134;28;20867;-77
2023/04/05 07:46:34;;;;;;;11.40;9.80;;;;;;;6.87;52.72;153123.97;5052414;28;20466;-78
2023/04/05 07:49:01;;;;;;;9.63;8.67;;;;;;;6.99;50.49;153156.25;5065796;28;20442;-77
2023/04/05 07:51:27;;;;;;;10.73;9.30;;;;;;;6.84;53.16;153117.53;5070001;28;20836;-78
2023/04/05 07:53:54;;;;;;;11.30;9.87;;;;;;;6.96;52.06;153147.25;5068277;28;20512;-78
2023/04/05 07:56:21;;;;;;;13.17;9.63;;;;;;;6.99;50.92;153155.00;5068994;28;20545;-77
2023/04/05 07:58:53;;;;;;;10.13;9.13;;;;;;;7.14;50.75;153195.00;5061063;28;20486;-77
2023/04/05 08:01:20;;;;;;;11.50;10.30;;;;;;;7.30;50.67;153236.34;5061145;28;20450;-78
2023/04/05 08:03:47;;;;;;;9.00;7.47;;;;;;;7.42;49.01;153264.69;5058757;28;20458;-78
2023/04/05 08:06:16;;;;;;;8.67;7.87;;;;;;;7.56;48.15;153300.88;5071426;28;21956;-78
2023/04/05 08:08:43;;;;;;;8.07;7.27;;;;;;;7.64;48.33;153321.56;5059392;28;20482;-78
2023/04/05 08:11:10;;;;;;;9.73;8.73;;;;;;;7.52;47.45;153291.81;5069133;28;20474;-77
2023/04/05 08:13:40;;;;;;;8.53;7.57;;;;;;;7.56;46.64;153302.19;5068487;28;20462;-78
2023/04/05 08:16:08;;;;;;;9.23;8.27;;;;;;;7.51;47.86;153289.28;5084390;28;20470;-78
2023/04/05 08:18:35;;;;;;;10.10;9.00;;;;;;;7.63;47.06;153318.94;5084497;28;21049;-78
2023/04/05 08:21:02;;;;;;;12.00;6.80;;;;;;;7.69;45.49;153334.47;5061342;28;21055;-78
2023/04/05 08:23:29;;;;;;;8.67;7.77;;;;;;;7.61;44.27;153313.78;5070304;28;20454;-78
2023/04/05 08:25:55;;;;;;;7.93;7.13;;;;;;;7.53;43.24;153294.44;5068757;28;20451;-77
2023/04/05 08:28:22;;;;;;;9.37;7.03;;;;;;;7.66;43.65;153328.00;5067720;28;20477;-78
2023/04/05 08:30:53;;;;;;;8.80;7.47;;;;;;;7.79;44.01;153360.28;5042914;28;21020;-78
2023/04/05 08:33:21;;;;;;;9.83;8.10;;;;;;;7.75;44.31;153349.97;5084237;28;20512;-78
2023/04/05 08:35:48;;;;;;;7.63;6.67;;;;;;;7.59;43.75;153308.63;5068432;28;20450;-77
2023/04/05 08:38:14;;;;;;;8.90;6.20;;;;;;;7.32;42.18;153241.47;5082782;28;20506;-77
2023/04/05 08:40:43;;;;;;;7.53;6.73;;;;;;;7.15;43.69;153197.56;5058101;28;20466;-77
2023/04/05 08:43:13;;;;;;;7.03;6.30;;;;;;;7.21;42.38;153213.06;5064703;28;20493;-77
2023/04/05 08:45:44;;;;;;;8.20;7.40;;;;;;;7.30;43.79;153236.34;5083362;28;20457;-77
2023/04/05 08:48:11;;;;;;;7.90;7.10;;;;;;;7.34;43.50;153245.34;5043587;28;20462;-78
2023/04/05 08:50:40;;;;;;;6.50;5.90;;;;;;;7.32;43.96;153241.47;5067795;28;20473;-77
2023/04/05 08:53:09;;;;;;;8.27;7.30;;;;;;;7.32;44.75;153241.47;5076330;28;20470;-78
2023/04/05 08:55:36;;;;;;;7.70;6.73;;;;;;;7.30;46.44;153236.34;5067428;28;20809;-77
2023/04/05 08:58:04;;;;;;;7.23;6.53;;;;;;;7.34;46.09;153246.63;5084337;28;20474;-77
2023/04/05 09:00:31;;;;;;;6.13;5.53;;;;;;;7.58;42.59;153306.03;5068242;28;20443;-75
2023/04/05 09:03:01;;;;;;;7.10;6.40;;;;;;;7.50;43.33;153285.38;5051142;28;20458;-77
2023/04/05 09:05:28;;;;;;;10.07;6.30;;;;;;;7.61;44.01;153313.78;5069185;28;21025;-77
2023/04/05 09:07:58;;;;;;;8.00;7.13;;;;;;;7.41;42.01;153263.44;5068911;28;20867;-77
2023/04/05 09:10:26;;;;;;;7.77;6.47;;;;;;;7.15;42.66;153197.56;5051291;28;20443;-77
2023/04/05 09:12:53;;;;;;;6.80;5.87;;;;;;;7.27;42.03;153228.56;5067430;28;20836;-77
2023/04/05 09:15:23;;;;;;;6.90;6.20;;;;;;;7.33;43.30;153244.03;5068732;28;20525;-77
2023/04/05 09:17:50;;;;;;;6.00;5.40;;;;;;;7.33;42.67;153244.03;5062194;28;20477;-77
2023/04/05 09:20:17;;;;;;;7.60;6.23;;;;;;;7.22;42.16;153214.38;5089222;28;20448;-77
2023/04/05 09:22:44;;;;;;;7.47;6.70;;;;;;;7.18;43.64;153205.31;5088669;28;20453;-77
2023/04/05 09:25:13;;;;;;;8.30;7.07;;;;;;;7.10;42.75;153183.34;5070760;28;20445;-77
2023/04/05 09:27:54;;;;;;;7.37;6.60;;;;;;;7.27;43.98;153227.28;5070465;28;20804;-77
2023/04/05 09:30:21;;;;;;;7.20;6.50;;;;;;;7.52;43.58;153291.81;5062843;28;20460;-77
2023/04/05 09:32:51;;;;;;;7.93;6.60;;;;;;;7.67;44.42;153329.31;5061574;28;20481;-77
2023/04/05 09:35:19;;;;;;;8.53;6.67;;;;;;;7.69;43.56;153335.75;5087149;28;20442;-77
2023/04/05 09:37:52;;;;;;;7.47;6.70;;;;;;;7.66;43.87;153326.72;5087117;28;20480;-77
2023/04/05 09:40:21;;;;;;;8.37;7.23;;;;;;;7.71;44.86;153339.63;5089075;28;20437;-77
2023/04/05 09:42:48;;;;;;;10.30;9.20;;;;;;;7.19;45.25;153206.63;5060937;28;21169;-77
2023/04/05 09:45:17;;;;;;;8.20;7.40;;;;;;;7.02;45.34;153164.00;5086626;28;20835;-77
2023/04/05 09:47:54;;;;;;;8.77;7.90;;;;;;;6.45;46.42;153016.88;5062441;28;20462;-77
2023/04/05 09:50:21;;;;;;;9.70;8.60;;;;;;;6.19;46.89;152949.78;5088305;28;20449;-77
2023/04/05 09:52:48;;;;;;;9.20;7.30;;;;;;;6.13;47.88;152936.88;5060485;28;20860;-77
2023/04/05 09:55:27;;;;;;;9.30;7.47;;;;;;;6.31;47.87;152982.03;5067808;28;20502;-78
2023/04/05 09:57:54;;;;;;;7.63;6.60;;;;;;;6.32;46.90;152983.31;5061451;28;20511;-77
2023/04/05 10:00:22;;;;;;;9.70;7.50;;;;;;;6.21;47.76;152954.94;5068633;28;20847;-77
2023/04/05 10:02:53;;;;;;;9.17;7.90;;;;;;;6.18;46.99;152947.19;5079612;28;20460;-77
2023/04/05 10:05:23;;;;;;;7.10;6.40;;;;;;;6.07;47.72;152921.38;5087371;28;20452;-77
2023/04/05 10:07:50;;;;;;;11.67;7.50;;;;;;;5.98;47.32;152898.16;5052864;28;20460;-77
2023/04/05 10:10:18;;;;;;;11.60;8.07;;;;;;;6.12;47.68;152932.97;5070312;28;20526;-77
2023/04/05 10:12:46;;;;;;;11.60;7.73;;;;;;;6.18;47.15;152947.19;5087263;28;20536;-77
2023/04/05 10:15:13;;;;;;;8.90;6.33;;;;;;;6.00;46.13;152902.03;5069371;28;20457;-77
2023/04/05 10:17:48;;;;;;;8.90;7.40;;;;;;;5.94;49.12;152886.56;5063197;28;20477;-78
2023/04/05 10:20:16;;;;;;;11.00;8.50;;;;;;;6.11;47.60;152931.72;5059275;28;20447;-77
2023/04/05 10:22:53;;;;;;;8.40;7.50;;;;;;;6.32;47.41;152983.31;5060785;28;20947;-77
2023/04/05 10:25:25;;;;;;;9.90;8.50;;;;;;;6.27;46.60;152970.41;5087376;28;21032;-77
2023/04/05 10:27:55;;;;;;;9.57;7.33;;;;;;;6.32;47.38;152983.31;5044666;28;20456;-77
2023/04/05 10:30:24;;;;;;;11.50;8.10;;;;;;;6.22;47.60;152957.53;5060685;28;21079;-77
2023/04/05 10:33:05;;;;;;;12.53;9.03;;;;;;;6.17;48.77;152945.88;5085119;28;20565;-77
2023/04/05 10:35:36;;;;;;;10.83;8.33;;;;;;;6.34;48.40;152989.78;5059106;28;20544;-77
2023/04/05 10:38:12;;;;;;;11.07;8.50;;;;;;;6.42;46.68;153009.13;5061909;28;21026;-77
2023/04/05 10:40:40;;;;;;;9.83;8.83;;;;;;;6.26;46.95;152969.13;5086980;28;20806;-77
2023/04/05 10:43:16;;;;;;;10.37;9.37;;;;;;;6.40;48.05;153005.28;5069758;28;20498;-75
2023/04/05 10:45:45;;;;;;;10.03;8.50;;;;;;;6.39;47.67;153002.66;5069731;28;20460;-76
2023/04/05 10:48:21;;;;;;;10.40;7.90;;;;;;;6.34;46.25;152988.47;5068849;28;20533;-75
2023/04/05 10:50:48;;;;;;;10.07;9.03;;;;;;;6.32;47.71;152984.63;5077549;28;20500;-76
2023/04/05 10:53:17;;;;;;;9.07;8.17;;;;;;;6.35;54.34;152991.06;5069731;28;20461;-76
2023/04/05 10:55:44;;;;;;;10.07;9.07;;;;;;;6.42;55.67;153009.13;5087187;28;20789;-76
2023/04/05 10:58:13;;;;;;;8.73;7.83;;;;;;;6.45;50.05;153016.88;5086913;28;20520;-76
2023/04/05 11:00:40;;;;;;;9.13;8.23;;;;;;;6.51;48.25;153033.63;5091429;28;20526;-76
2023/04/05 11:03:07;;;;;;;8.77;7.80;;;;;;;6.57;48.74;153047.81;5073025;28;20512;-76
2023/04/05 11:05:36;;;;;;;10.83;8.40;;;;;;;6.67;52.96;153073.66;5073957;28;20478;-76
2023/04/05 11:08:05;;;;;;;8.87;7.60;;;;;;;6.65;53.05;153068.47;5089499;28;20538;-76
2023/04/05 11:10:35;;;;;;;9.33;7.43;;;;;;;6.70;46.33;153082.66;5073790;28;20450;-76
2023/04/05 11:13:09;;;;;;;8.10;7.40;;;;;;;6.68;45.86;153076.22;5064802;28;20734;-76
2023/04/05 11:15:38;;;;;;;8.50;7.60;;;;;;;6.66;46.82;153071.06;5060981;28;20530;-76
2023/04/05 11:18:09;;;;;;;9.00;8.10;;;;;;;6.66;46.18;153071.06;5062229;28;20482;-76
2023/04/05 11:20:41;;;;;;;10.10;8.50;;;;;;;6.55;46.47;153042.66;5061369;28;20449;-76
2023/04/05 11:23:08;;;;;;;8.40;7.60;;;;;;;6.43;46.64;153011.72;5061900;28;20558;-76
2023/04/05 11:25:38;;;;;;;7.73;7.03;;;;;;;6.51;47.84;153032.38;5044848;28;20537;-76
2023/04/05 11:28:07;;;;;;;9.20;7.73;;;;;;;6.56;45.91;153045.25;5062033;28;20478;-76
2023/04/05 11:30:50;;;;;;;8.53;7.67;;;;;;;6.59;45.12;153053.00;5071800;28;20449;-75
2023/04/05 11:33:36;;;;;;;8.93;6.43;;;;;;;6.63;46.06;153064.63;5052903;28;20442;-76
2023/04/05 11:36:03;;;;;;;7.83;6.87;;;;;;;6.78;44.52;153102.03;5063109;28;20445;-77
2023/04/05 11:38:29;;;;;;;8.50;7.30;;;;;;;6.86;44.12;153122.69;5061358;28;20516;-76
2023/04/05 11:41:06;;;;;;;7.53;6.77;;;;;;;6.79;44.44;153104.63;5061254;28;20457;-76
2023/04/05 11:43:34;;;;;;;8.40;7.50;;;;;;;6.83;44.95;153113.69;5071397;28;20457;-76